Time;durP1;ratioP1;P1;durP2;ratioP2;P2;SDS_P1;SDS_P2;PMS_P1;PMS_P2;Temp;Humidity;BMP_temperature;BMP_pressure;BME280_temperature;BME280_humidity;BME280_pressure;Samples;Min_cycle;Max_cycle;Signal;HPM_P1;HPM_P2
2023/05/10 04:24:20;;;;;;;;;;;17.00;56.70;;;;;;5078670;28;19932;-78
2023/05/10 04:26:46;;;;;;;;;;;17.10;58.20;;;;;;5073385;28;19912;-77
2023/05/10 04:29:13;;;;;;;;;;;17.00;56.60;;;;;;5075257;28;19911;-79
2023/05/10 04:31:40;;;;;;;;;;;17.00;57.00;;;;;;5085947;28;19913;-77
2023/05/10 04:34:07;;;;;;;;;;;17.00;58.40;;;;;;5087595;28;19908;-77
2023/05/10 04:36:35;;;;;;;;;;;17.10;58.40;;;;;;5080321;28;19912;-77
2023/05/10 04:39:05;;;;;;;;;;;17.00;58.40;;;;;;5073791;28;20388;-74
2023/05/10 04:41:32;;;;;;;;;;;17.10;58.80;;;;;;5089310;28;19916;-80
2023/05/10 04:43:58;;;;;;;;;;;17.00;58.80;;;;;;5092139;28;19907;-78
2023/05/10 04:46:25;;;;;;;;;;;17.00;59.30;;;;;;5092193;28;19908;-79
2023/05/10 04:48:52;;;;;;;;;;;17.00;59.50;;;;;;5091711;28;19908;-78
2023/05/10 04:51:19;;;;;;;;;;;17.00;59.90;;;;;;5092157;28;19915;-79
2023/05/10 04:53:45;;;;;;;;;;;17.00;59.40;;;;;;5092225;28;19947;-77
2023/05/10 04:56:12;;;;;;;;;;;17.00;60.10;;;;;;5091996;28;20322;-77
2023/05/10 04:58:39;;;;;;;;;;;17.00;60.30;;;;;;5091994;28;19967;-79
2023/05/10 05:01:09;;;;;;;;;;;17.00;60.00;;;;;;5091903;28;19940;-79
2023/05/10 05:03:35;;;;;;;;;;;16.90;59.90;;;;;;5091990;28;19908;-79
2023/05/10 05:06:02;;;;;;;;;;;16.90;60.70;;;;;;5092168;28;19981;-79
2023/05/10 05:08:29;;;;;;;;;;;16.90;61.20;;;;;;5092030;28;19908;-77
2023/05/10 05:10:56;;;;;;;;;;;17.00;60.50;;;;;;5092028;28;20102;-80
2023/05/10 05:13:23;;;;;;;;;;;17.00;61.00;;;;;;5091893;28;20358;-81
2023/05/10 05:15:50;;;;;;;;;;;16.90;61.00;;;;;;5092006;28;19944;-80
2023/05/10 05:18:17;;;;;;;;;;;16.80;61.00;;;;;;5092366;28;19912;-77
2023/05/10 05:20:43;;;;;;;;;;;16.80;60.80;;;;;;5091878;28;19930;-80
2023/05/10 05:23:10;;;;;;;;;;;16.90;59.90;;;;;;5091849;28;19919;-79
2023/05/10 10:46:57;;;;;;;;;;;15.00;76.60;;;;;;3272238;26;19929;-82
2023/05/10 10:49:24;;;;;;;;;;;15.00;76.60;;;;;;5072823;28;20273;-82
2023/05/10 10:52:09;;;;;;;;;;;15.00;76.80;;;;;;5055386;28;19915;-82
2023/05/10 10:54:35;;;;;;;;;;;15.00;76.90;;;;;;5071529;28;20003;-82
2023/05/10 10:57:12;;;;;;;;;;;15.00;77.00;;;;;;5036849;28;19919;-80
2023/05/10 10:59:46;;;;;;;;;;;14.90;77.00;;;;;;5052394;28;20016;-80
2023/05/10 11:02:30;;;;;;;;;;;14.80;77.40;;;;;;5054165;28;19999;-82
2023/05/10 11:04:57;;;;;;;;;;;14.70;77.80;;;;;;5067424;28;19913;-80
2023/05/10 11:07:24;;;;;;;;;;;14.70;77.90;;;;;;5070576;28;19916;-79
2023/05/10 11:09:51;;;;;;;;;;;14.70;78.30;;;;;;5081591;28;19919;-76
2023/05/10 11:12:18;;;;;;;;;;;14.70;78.70;;;;;;5028038;28;19959;-80
2023/05/10 11:14:50;;;;;;;;;;;14.60;78.40;;;;;;5068281;28;19951;-79
2023/05/10 11:17:27;;;;;;;;;;;14.50;78.50;;;;;;5050472;28;19916;-79
2023/05/10 11:20:14;;;;;;;;;;;14.50;78.80;;;;;;5069043;28;19935;-79
2023/05/10 11:22:51;;;;;;;;;;;14.40;78.70;;;;;;5069796;28;19916;-77
2023/05/10 11:25:18;;;;;;;;;;;14.30;79.00;;;;;;5050877;28;19916;-77
2023/05/10 11:27:45;;;;;;;;;;;14.30;79.30;;;;;;5064859;28;20526;-77
2023/05/10 11:30:12;;;;;;;;;;;14.40;79.30;;;;;;5067338;28;19923;-76
2023/05/10 11:32:39;;;;;;;;;;;14.30;79.70;;;;;;5069160;28;19937;-77
2023/05/10 11:35:09;;;;;;;;;;;14.30;79.80;;;;;;5064981;28;19923;-81
2023/05/10 11:37:36;;;;;;;;;;;14.20;79.70;;;;;;5068870;28;19951;-89
2023/05/10 11:40:03;;;;;;;;;;;14.20;79.90;;;;;;5071416;28;19924;-86
2023/05/10 11:42:30;;;;;;;;;;;14.20;80.20;;;;;;5070849;28;20283;-78
2023/05/10 11:44:56;;;;;;;;;;;14.20;80.50;;;;;;5060136;28;19912;-81
2023/05/10 11:47:23;;;;;;;;;;;14.20;80.70;;;;;;5051653;28;19920;-80
2023/05/10 11:49:50;;;;;;;;;;;14.10;80.90;;;;;;5071958;28;19920;-80
2023/05/10 11:52:17;;;;;;;;;;;14.10;81.10;;;;;;5071752;28;19912;-80
2023/05/10 11:54:53;;;;;;;;;;;14.20;81.10;;;;;;5086805;28;19912;-80
2023/05/10 11:57:20;;;;;;;;;;;14.20;80.90;;;;;;5071875;28;19999;-80
2023/05/10 11:59:47;;;;;;;;;;;14.20;80.70;;;;;;5067790;28;19916;-80
2023/05/10 12:02:14;;;;;;;;;;;14.30;80.60;;;;;;5071757;28;20286;-80
2023/05/10 12:04:41;;;;;;;;;;;14.20;80.70;;;;;;5053595;28;19924;-81
2023/05/10 12:07:08;;;;;;;;;;;14.30;80.40;;;;;;5071593;28;19913;-81
2023/05/10 12:09:35;;;;;;;;;;;14.20;80.40;;;;;;5070511;28;19920;-81
2023/05/10 12:12:02;;;;;;;;;;;14.20;80.90;;;;;;5053598;28;20367;-81
2023/05/10 12:14:33;;;;;;;;;;;14.20;80.90;;;;;;5052793;28;19923;-80
2023/05/10 12:16:59;;;;;;;;;;;14.20;80.70;;;;;;5071390;28;19920;-81
2023/05/10 12:19:26;;;;;;;;;;;14.10;80.80;;;;;;5069842;28;20293;-81
2023/05/10 12:21:53;;;;;;;;;;;14.10;80.50;;;;;;5070565;28;20634;-81
2023/05/10 12:24:21;;;;;;;;;;;14.10;80.40;;;;;;5070445;28;19913;-81
2023/05/10 12:26:48;;;;;;;;;;;14.10;80.50;;;;;;5070290;28;19908;-80
2023/05/10 12:29:18;;;;;;;;;;;14.10;80.60;;;;;;5072055;28;20007;-81
2023/05/10 12:31:51;;;;;;;;;;;14.00;80.70;;;;;;5071501;28;20381;-81
2023/05/10 12:34:27;;;;;;;;;;;14.00;80.60;;;;;;5070241;28;19914;-81
2023/05/10 12:36:54;;;;;;;;;;;13.90;80.70;;;;;;5071371;28;19916;-81
2023/05/10 12:39:20;;;;;;;;;;;13.80;80.70;;;;;;5070770;28;19916;-81
2023/05/10 12:41:47;;;;;;;;;;;13.80;80.90;;;;;;5070217;28;19913;-81
2023/05/10 12:44:14;;;;;;;;;;;13.80;81.00;;;;;;5086517;28;19918;-80
2023/05/10 12:46:41;;;;;;;;;;;13.80;81.20;;;;;;5070541;28;19920;-80
2023/05/10 12:49:07;;;;;;;;;;;13.70;81.20;;;;;;5071932;28;19909;-80
2023/05/10 12:51:34;;;;;;;;;;;13.70;81.20;;;;;;5075460;28;19912;-81
2023/05/10 12:54:01;;;;;;;;;;;13.70;81.30;;;;;;5057056;28;20369;-80
2023/05/10 12:56:28;;;;;;;;;;;13.70;81.50;;;;;;5075381;28;19913;-81
2023/05/10 12:58:54;;;;;;;;;;;13.70;81.80;;;;;;5075553;28;19912;-80
2023/05/10 13:01:21;;;;;;;;;;;13.70;81.50;;;;;;5075647;28;19974;-80
2023/05/10 13:03:48;;;;;;;;;;;13.70;81.50;;;;;;5075621;28;19916;-79
2023/05/10 13:06:15;;;;;;;;;;;13.70;81.70;;;;;;5055389;28;19913;-80
2023/05/10 13:08:41;;;;;;;;;;;13.70;81.50;;;;;;5055364;28;19909;-80
2023/05/10 13:11:08;;;;;;;;;;;13.60;81.40;;;;;;5058768;28;20382;-80
2023/05/10 13:13:35;;;;;;;;;;;13.50;81.30;;;;;;5075722;28;19912;-80
2023/05/10 13:16:02;;;;;;;;;;;13.50;81.20;;;;;;5055413;28;20366;-80
2023/05/10 13:18:28;;;;;;;;;;;13.50;81.10;;;;;;5056609;28;20319;-79
2023/05/10 13:20:55;;;;;;;;;;;13.50;81.00;;;;;;5074417;28;19925;-80
2023/05/10 13:23:22;;;;;;;;;;;13.50;81.10;;;;;;5075212;28;19920;-79
2023/05/10 13:25:49;;;;;;;;;;;13.50;81.10;;;;;;5073913;28;19955;-80
2023/05/10 13:28:15;;;;;;;;;;;13.40;81.10;;;;;;5073720;28;19931;-79
2023/05/10 13:30:42;;;;;;;;;;;13.40;81.10;;;;;;5075412;28;19916;-80
2023/05/10 13:33:09;;;;;;;;;;;13.30;81.20;;;;;;5075042;28;19909;-80
2023/05/10 13:35:35;;;;;;;;;;;13.30;81.40;;;;;;5074554;28;19913;-79
2023/05/10 13:38:02;;;;;;;;;;;13.30;81.40;;;;;;5074925;28;19958;-79
2023/05/10 13:40:29;;;;;;;;;;;13.30;81.50;;;;;;5074873;28;20440;-80
2023/05/10 13:42:56;;;;;;;;;;;13.30;81.50;;;;;;5074308;28;20362;-80
2023/05/10 13:45:22;;;;;;;;;;;13.30;81.50;;;;;;5074446;28;20015;-79
2023/05/10 13:47:49;;;;;;;;;;;13.20;81.50;;;;;;5073330;28;20390;-79
2023/05/10 13:50:16;;;;;;;;;;;13.20;81.60;;;;;;5090239;28;19962;-80
2023/05/10 13:52:43;;;;;;;;;;;13.20;81.60;;;;;;5040064;28;20395;-79
2023/05/10 13:55:12;;;;;;;;;;;13.20;81.60;;;;;;5090382;28;19924;-80
2023/05/10 13:57:38;;;;;;;;;;;13.20;81.70;;;;;;5074340;28;19912;-79
2023/05/10 14:00:05;;;;;;;;;;;13.20;81.70;;;;;;5072824;28;19928;-80
2023/05/10 14:02:32;;;;;;;;;;;13.20;81.70;;;;;;5073832;28;19991;-80
2023/05/10 14:04:59;;;;;;;;;;;13.20;81.80;;;;;;5090288;28;19962;-79
2023/05/10 14:07:26;;;;;;;;;;;13.20;81.40;;;;;;5074297;28;19908;-79
2023/05/10 14:09:53;;;;;;;;;;;13.20;81.30;;;;;;5073931;28;20003;-78
2023/05/10 14:12:20;;;;;;;;;;;13.20;81.20;;;;;;5074628;28;19909;-79
2023/05/10 14:14:46;;;;;;;;;;;13.20;81.30;;;;;;5074660;28;20266;-79
2023/05/10 14:17:13;;;;;;;;;;;13.20;81.40;;;;;;5073676;28;19954;-78
2023/05/10 14:19:40;;;;;;;;;;;13.20;81.40;;;;;;5073790;28;20362;-78
2023/05/10 14:22:07;;;;;;;;;;;13.20;81.30;;;;;;5074314;28;19912;-78
2023/05/10 14:24:33;;;;;;;;;;;13.20;81.30;;;;;;5074669;28;19931;-79
2023/05/10 14:27:00;;;;;;;;;;;13.20;81.20;;;;;;5074466;28;19998;-79
2023/05/10 14:29:27;;;;;;;;;;;13.10;81.10;;;;;;5074168;28;19920;-78
2023/05/10 14:31:53;;;;;;;;;;;13.10;81.10;;;;;;5056230;28;19936;-79
2023/05/10 14:34:20;;;;;;;;;;;13.10;81.10;;;;;;5074346;28;20027;-79
2023/05/10 14:36:47;;;;;;;;;;;13.10;81.30;;;;;;5074129;28;20369;-79
2023/05/10 14:39:14;;;;;;;;;;;13.10;81.20;;;;;;5073263;28;19962;-78
2023/05/10 14:41:44;;;;;;;;;;;13.00;81.00;;;;;;5074365;28;19912;-79
2023/05/10 14:44:11;;;;;;;;;;;13.10;81.60;;;;;;5074035;28;19962;-78
2023/05/10 14:46:38;;;;;;;;;;;13.10;81.50;;;;;;5073953;28;19928;-80
2023/05/10 14:49:05;;;;;;;;;;;13.00;81.50;;;;;;5073951;28;19920;-80
2023/05/10 14:51:31;;;;;;;;;;;13.00;81.20;;;;;;5073771;28;20003;-80
2023/05/10 14:53:58;;;;;;;;;;;13.00;81.10;;;;;;5073397;28;19916;-80
2023/05/10 14:56:25;;;;;;;;;;;13.00;81.30;;;;;;5073612;28;20380;-79
2023/05/10 14:58:52;;;;;;;;;;;13.00;81.20;;;;;;5073462;28;19913;-80
2023/05/10 15:01:19;;;;;;;;;;;13.10;81.80;;;;;;5053628;28;19913;-80
2023/05/10 15:03:46;;;;;;;;;;;13.00;82.20;;;;;;5053459;28;19909;-80
2023/05/10 15:06:14;;;;;;;;;;;13.00;81.30;;;;;;5053635;28;19909;-80
2023/05/10 15:08:40;;;;;;;;;;;12.90;81.50;;;;;;5061016;28;19915;-80
2023/05/10 15:11:07;;;;;;;;;;;12.90;81.20;;;;;;5072908;28;19908;-81
2023/05/10 15:13:34;;;;;;;;;;;13.00;81.70;;;;;;5054143;28;19982;-80
2023/05/10 15:16:01;;;;;;;;;;;12.90;81.60;;;;;;5073301;28;20022;-80
2023/05/10 15:18:27;;;;;;;;;;;12.90;81.80;;;;;;5073282;28;19918;-80
2023/05/10 15:20:55;;;;;;;;;;;12.80;81.70;;;;;;5073409;28;19921;-79
2023/05/10 15:23:21;;;;;;;;;;;12.80;81.80;;;;;;5072840;28;19915;-79
2023/05/10 15:25:50;;;;;;;;;;;12.80;81.30;;;;;;5072891;28;19912;-80
2023/05/10 15:28:16;;;;;;;;;;;12.80;81.70;;;;;;5072816;28;19909;-80
2023/05/10 15:30:43;;;;;;;;;;;12.80;81.90;;;;;;5073177;28;19908;-80
2023/05/10 15:33:10;;;;;;;;;;;12.70;81.80;;;;;;5073003;28;19908;-80
2023/05/10 15:35:39;;;;;;;;;;;12.70;81.70;;;;;;5072950;28;19919;-79
2023/05/10 15:38:06;;;;;;;;;;;12.70;81.70;;;;;;5073029;28;19999;-79
2023/05/10 15:40:33;;;;;;;;;;;12.70;82.00;;;;;;5072659;28;19916;-80
2023/05/10 15:43:00;;;;;;;;;;;12.70;81.90;;;;;;5072469;28;20372;-79
2023/05/10 15:45:27;;;;;;;;;;;12.70;81.90;;;;;;5072843;28;19916;-77
2023/05/10 15:47:54;;;;;;;;;;;12.70;81.80;;;;;;5088309;28;19916;-80
2023/05/10 15:50:20;;;;;;;;;;;12.70;81.70;;;;;;5072254;28;19916;-79
2023/05/10 15:52:47;;;;;;;;;;;12.70;81.70;;;;;;5061819;28;19919;-80
2023/05/10 15:55:14;;;;;;;;;;;12.70;82.00;;;;;;5072887;28;19916;-80
2023/05/10 15:57:41;;;;;;;;;;;12.70;82.10;;;;;;5088406;28;19913;-79
2023/05/10 16:00:08;;;;;;;;;;;12.70;81.80;;;;;;5072535;28;19986;-80
2023/05/10 16:02:39;;;;;;;;;;;12.70;81.60;;;;;;5071595;28;20412;-80
2023/05/10 16:05:06;;;;;;;;;;;12.70;81.70;;;;;;5072712;28;19913;-80
2023/05/10 16:07:33;;;;;;;;;;;12.70;81.70;;;;;;5072694;28;19954;-80
2023/05/10 16:10:02;;;;;;;;;;;12.60;81.80;;;;;;5072367;28;19919;-79
2023/05/10 16:12:30;;;;;;;;;;;12.70;81.80;;;;;;5072925;28;19912;-80
2023/05/10 16:14:57;;;;;;;;;;;12.70;81.70;;;;;;5072436;28;19956;-80
2023/05/10 16:17:23;;;;;;;;;;;12.70;82.00;;;;;;5072233;28;19908;-79
2023/05/10 16:19:50;;;;;;;;;;;12.70;81.90;;;;;;5071809;28;20306;-79
2023/05/10 16:22:17;;;;;;;;;;;12.70;82.10;;;;;;5072363;28;19912;-79
2023/05/10 16:24:43;;;;;;;;;;;12.70;82.20;;;;;;5072247;28;19913;-79
2023/05/10 16:27:12;;;;;;;;;;;12.70;82.10;;;;;;5072178;28;19931;-79
2023/05/10 16:29:38;;;;;;;;;;;12.70;81.90;;;;;;5071944;28;19919;-79
2023/05/10 16:32:05;;;;;;;;;;;12.70;82.20;;;;;;5072236;28;19916;-79
2023/05/10 16:34:32;;;;;;;;;;;12.70;81.90;;;;;;5072122;28;20315;-80
2023/05/10 16:36:59;;;;;;;;;;;12.70;82.10;;;;;;5072384;28;19956;-80
2023/05/10 16:39:26;;;;;;;;;;;12.80;82.20;;;;;;5072023;28;19966;-79
2023/05/10 16:41:52;;;;;;;;;;;12.70;82.30;;;;;;5072147;28;19924;-79
2023/05/10 16:44:19;;;;;;;;;;;12.80;82.70;;;;;;5071823;28;19998;-79
2023/05/10 16:46:46;;;;;;;;;;;12.70;82.40;;;;;;5072256;28;19920;-80
2023/05/10 16:49:13;;;;;;;;;;;12.70;82.30;;;;;;5071670;28;19913;-80
2023/05/10 16:51:40;;;;;;;;;;;12.70;82.10;;;;;;5072031;28;20328;-79
2023/05/10 16:54:06;;;;;;;;;;;12.80;81.90;;;;;;5071770;28;19908;-79
2023/05/10 16:56:33;;;;;;;;;;;12.80;81.90;;;;;;5071769;28;20435;-78
2023/05/10 16:59:00;;;;;;;;;;;12.80;81.60;;;;;;5071550;28;19913;-78
2023/05/10 17:01:27;;;;;;;;;;;12.80;81.60;;;;;;5071837;28;20401;-79
2023/05/10 17:03:54;;;;;;;;;;;12.80;81.70;;;;;;5070489;28;20285;-79
2023/05/10 17:06:20;;;;;;;;;;;12.80;82.00;;;;;;5072288;28;20282;-79
2023/05/10 17:08:47;;;;;;;;;;;12.90;81.90;;;;;;5071504;28;19967;-78
2023/05/10 17:11:14;;;;;;;;;;;12.80;82.10;;;;;;5072055;28;20433;-77
2023/05/10 17:13:40;;;;;;;;;;;12.80;82.00;;;;;;5072017;28;19918;-78
2023/05/10 17:16:07;;;;;;;;;;;12.80;81.60;;;;;;5071975;28;19908;-79
2023/05/10 17:18:34;;;;;;;;;;;12.80;82.00;;;;;;5071134;28;19955;-78
2023/05/10 17:21:01;;;;;;;;;;;12.80;81.70;;;;;;5071165;28;20371;-78
2023/05/10 17:23:28;;;;;;;;;;;12.80;81.70;;;;;;5071632;28;19913;-78
2023/05/10 17:25:54;;;;;;;;;;;12.80;82.00;;;;;;5070934;28;19920;-78
2023/05/10 17:28:21;;;;;;;;;;;12.80;81.60;;;;;;5071896;28;19908;-78
2023/05/10 17:30:54;;;;;;;;;;;12.80;81.60;;;;;;5071776;28;19908;-79
2023/05/10 17:33:21;;;;;;;;;;;12.80;82.00;;;;;;5071706;28;20010;-78
2023/05/10 17:35:48;;;;;;;;;;;12.70;82.00;;;;;;5071694;28;20015;-78
2023/05/10 17:38:14;;;;;;;;;;;12.80;81.90;;;;;;5075405;28;19908;-79
2023/05/10 17:40:41;;;;;;;;;;;12.70;82.30;;;;;;5075183;28;19967;-79
2023/05/10 17:43:08;;;;;;;;;;;12.70;82.20;;;;;;5075256;28;19916;-78
2023/05/10 17:45:35;;;;;;;;;;;12.70;82.30;;;;;;5074596;28;19919;-79
2023/05/10 17:48:01;;;;;;;;;;;12.70;81.90;;;;;;5037494;28;19924;-78
2023/05/10 17:50:28;;;;;;;;;;;12.70;82.00;;;;;;5055023;28;19909;-78
2023/05/10 17:52:55;;;;;;;;;;;12.70;82.00;;;;;;5072368;28;19960;-78
2023/05/10 17:55:21;;;;;;;;;;;12.70;82.10;;;;;;5074887;28;20013;-78
2023/05/10 17:57:48;;;;;;;;;;;12.70;82.30;;;;;;5074891;28;19944;-78
2023/05/10 18:00:15;;;;;;;;;;;12.70;82.40;;;;;;5074772;28;19926;-78
2023/05/10 18:02:42;;;;;;;;;;;12.70;82.10;;;;;;5074808;28;19955;-78
2023/05/10 18:05:09;;;;;;;;;;;12.70;82.00;;;;;;5074466;28;19934;-78
2023/05/10 18:07:36;;;;;;;;;;;12.70;81.90;;;;;;5074346;28;19912;-78
2023/05/10 18:10:03;;;;;;;;;;;12.70;82.00;;;;;;5074915;28;19909;-78
2023/05/10 18:12:30;;;;;;;;;;;12.70;82.00;;;;;;5074415;28;20320;-79
2023/05/10 18:14:56;;;;;;;;;;;12.70;82.20;;;;;;5074713;28;19909;-79
2023/05/10 18:17:23;;;;;;;;;;;12.70;82.00;;;;;;5074257;28;19912;-79
2023/05/10 18:19:50;;;;;;;;;;;12.70;81.90;;;;;;5074776;28;19951;-79
2023/05/10 18:22:17;;;;;;;;;;;12.70;82.20;;;;;;5074406;28;19908;-79
2023/05/10 18:24:45;;;;;;;;;;;12.70;82.40;;;;;;5074549;28;19908;-78
2023/05/10 18:27:12;;;;;;;;;;;12.70;82.60;;;;;;5073947;28;19924;-79
2023/05/10 18:29:39;;;;;;;;;;;12.70;82.40;;;;;;5074275;28;19914;-79
2023/05/10 18:32:06;;;;;;;;;;;12.60;82.40;;;;;;5074051;28;19908;-79
2023/05/10 18:34:32;;;;;;;;;;;12.70;82.30;;;;;;5074127;28;19935;-79
2023/05/10 18:36:59;;;;;;;;;;;12.60;82.60;;;;;;5073778;28;19912;-79
2023/05/10 18:39:26;;;;;;;;;;;12.60;82.60;;;;;;5056038;28;19920;-79
2023/05/10 18:41:52;;;;;;;;;;;12.60;82.40;;;;;;5073835;28;19916;-79
2023/05/10 18:44:20;;;;;;;;;;;12.60;82.40;;;;;;5089194;28;19920;-79
2023/05/10 18:46:47;;;;;;;;;;;12.60;82.30;;;;;;5073519;28;19974;-79
2023/05/10 18:49:14;;;;;;;;;;;12.60;82.70;;;;;;5072832;28;19917;-78
2023/05/10 18:51:41;;;;;;;;;;;12.60;83.10;;;;;;5073668;28;19948;-79
2023/05/10 18:54:07;;;;;;;;;;;12.50;82.80;;;;;;5072737;28;20003;-78
2023/05/10 18:56:34;;;;;;;;;;;12.50;82.60;;;;;;5068468;28;20310;-78
2023/05/10 18:59:01;;;;;;;;;;;12.50;82.80;;;;;;5068813;28;20011;-77
2023/05/10 19:01:28;;;;;;;;;;;12.40;82.80;;;;;;5073225;28;19919;-78
2023/05/10 19:03:55;;;;;;;;;;;12.40;83.00;;;;;;5073528;28;19923;-78
2023/05/10 19:06:21;;;;;;;;;;;12.40;83.10;;;;;;5056076;28;19908;-77
2023/05/10 19:08:49;;;;;;;;;;;12.40;83.20;;;;;;5072656;28;19919;-77
2023/05/10 19:11:16;;;;;;;;;;;12.40;83.30;;;;;;5073179;28;20263;-77
2023/05/10 19:13:44;;;;;;;;;;;12.40;83.10;;;;;;5073785;28;19908;-75
2023/05/10 19:16:11;;;;;;;;;;;12.40;83.00;;;;;;5073437;28;20281;-77
2023/05/10 19:18:38;;;;;;;;;;;12.30;83.20;;;;;;5072874;28;19951;-76
2023/05/10 19:21:06;;;;;;;;;;;12.30;83.10;;;;;;5072709;28;20279;-77
2023/05/10 19:23:33;;;;;;;;;;;12.30;83.20;;;;;;5073120;28;19999;-76
2023/05/10 19:26:00;;;;;;;;;;;12.30;83.50;;;;;;5073376;28;19915;-76
2023/05/10 19:28:27;;;;;;;;;;;12.30;83.20;;;;;;5073133;28;19919;-80
2023/05/10 19:30:53;;;;;;;;;;;12.30;83.90;;;;;;5072994;28;19915;-80
2023/05/10 19:33:20;;;;;;;;;;;12.30;83.90;;;;;;5071198;28;19909;-80
2023/05/10 19:35:50;;;;;;;;;;;12.30;83.70;;;;;;5061556;28;19909;-78
2023/05/10 19:38:18;;;;;;;;;;;12.20;83.90;;;;;;5072228;28;19912;-79
2023/05/10 19:40:45;;;;;;;;;;;12.20;84.20;;;;;;5072073;28;19924;-79
2023/05/10 19:43:12;;;;;;;;;;;12.20;83.90;;;;;;5072531;28;19909;-79
2023/05/10 19:45:39;;;;;;;;;;;12.20;84.20;;;;;;5072224;28;19952;-79
2023/05/10 19:48:05;;;;;;;;;;;12.20;84.50;;;;;;5071878;28;20325;-79
2023/05/10 19:50:32;;;;;;;;;;;12.10;84.30;;;;;;5054038;28;19917;-79
2023/05/10 19:53:00;;;;;;;;;;;12.10;84.20;;;;;;5072351;28;20318;-80
2023/05/10 19:55:27;;;;;;;;;;;12.10;84.50;;;;;;5071722;28;19913;-80
2023/05/10 19:57:54;;;;;;;;;;;12.10;84.40;;;;;;5072123;28;19909;-81
2023/05/10 20:00:21;;;;;;;;;;;12.10;84.70;;;;;;5072150;28;19979;-80
2023/05/10 20:02:48;;;;;;;;;;;12.00;84.80;;;;;;5072296;28;19912;-79
2023/05/10 20:05:15;;;;;;;;;;;12.00;84.70;;;;;;5072258;28;19943;-80
2023/05/10 20:07:41;;;;;;;;;;;12.10;84.80;;;;;;5072287;28;20361;-80
2023/05/10 20:10:08;;;;;;;;;;;12.00;84.50;;;;;;5072639;28;19909;-81
2023/05/10 20:12:35;;;;;;;;;;;12.00;84.80;;;;;;5072558;28;20384;-81
2023/05/10 20:15:02;;;;;;;;;;;12.00;84.70;;;;;;5072335;28;19917;-81
2023/05/10 20:17:29;;;;;;;;;;;12.00;84.80;;;;;;5072577;28;19999;-81
2023/05/10 20:19:56;;;;;;;;;;;12.00;84.80;;;;;;5072831;28;20010;-80
2023/05/10 20:22:22;;;;;;;;;;;12.00;85.00;;;;;;5072521;28;19988;-81
2023/05/10 20:24:49;;;;;;;;;;;12.00;84.70;;;;;;5072407;28;19944;-81
2023/05/10 20:27:16;;;;;;;;;;;12.00;84.80;;;;;;5072321;28;19909;-81
2023/05/10 20:29:43;;;;;;;;;;;12.00;84.80;;;;;;5072066;28;19909;-81
2023/05/10 20:32:09;;;;;;;;;;;12.00;84.60;;;;;;5070562;28;19912;-81
2023/05/10 20:34:36;;;;;;;;;;;12.00;84.90;;;;;;5071957;28;19983;-80
2023/05/10 20:37:03;;;;;;;;;;;12.00;84.90;;;;;;5072303;28;19909;-81
2023/05/10 20:39:30;;;;;;;;;;;12.00;85.00;;;;;;5072540;28;19916;-80
2023/05/10 20:41:56;;;;;;;;;;;12.00;85.00;;;;;;5072151;28;19912;-80
2023/05/10 20:44:25;;;;;;;;;;;12.00;85.00;;;;;;5072507;28;19923;-81
2023/05/10 20:46:52;;;;;;;;;;;12.00;85.00;;;;;;5072267;28;19924;-81
2023/05/10 20:49:19;;;;;;;;;;;12.00;84.90;;;;;;5071777;28;19915;-81
2023/05/10 20:51:45;;;;;;;;;;;12.00;85.00;;;;;;5072058;28;20278;-81
2023/05/10 20:54:12;;;;;;;;;;;11.90;85.00;;;;;;5072246;28;19916;-81
2023/05/10 20:56:39;;;;;;;;;;;11.90;84.70;;;;;;5072355;28;20374;-81
2023/05/10 20:59:06;;;;;;;;;;;12.00;84.90;;;;;;5055445;28;19913;-81
2023/05/10 21:01:32;;;;;;;;;;;12.00;85.00;;;;;;5051840;28;20012;-80
2023/05/10 21:03:59;;;;;;;;;;;12.00;85.10;;;;;;5059131;28;19916;-80
2023/05/10 21:06:26;;;;;;;;;;;12.00;85.00;;;;;;5071927;28;19913;-81
2023/05/10 21:08:52;;;;;;;;;;;12.00;84.80;;;;;;5069390;28;19920;-81
2023/05/10 21:11:19;;;;;;;;;;;12.00;85.00;;;;;;5071203;28;20424;-78
2023/05/10 21:13:46;;;;;;;;;;;12.00;84.90;;;;;;5073550;28;19913;-80
2023/05/10 21:16:13;;;;;;;;;;;12.00;84.90;;;;;;5075084;28;19963;-79
2023/05/10 21:18:39;;;;;;;;;;;12.00;85.20;;;;;;5075757;28;19947;-79
2023/05/10 21:21:06;;;;;;;;;;;12.10;85.00;;;;;;5075536;28;20015;-78
2023/05/10 21:23:33;;;;;;;;;;;12.10;84.70;;;;;;5075570;28;20398;-76
2023/05/10 21:26:01;;;;;;;;;;;12.10;84.40;;;;;;5074273;28;19952;-76
2023/05/10 21:28:28;;;;;;;;;;;12.20;84.60;;;;;;5073474;28;19913;-76
2023/05/10 21:30:55;;;;;;;;;;;12.20;84.60;;;;;;5075876;28;20410;-77
2023/05/10 21:33:22;;;;;;;;;;;12.20;84.30;;;;;;5075399;28;19961;-76
2023/05/10 21:35:49;;;;;;;;;;;12.20;84.20;;;;;;5091400;28;19908;-76
2023/05/10 21:38:16;;;;;;;;;;;12.30;84.20;;;;;;5074569;28;19916;-77
2023/05/10 21:40:42;;;;;;;;;;;12.30;84.00;;;;;;5075157;28;19917;-77
2023/05/10 21:43:10;;;;;;;;;;;12.40;84.20;;;;;;5075572;28;20038;-77
2023/05/10 21:45:36;;;;;;;;;;;12.40;84.30;;;;;;5074448;28;19936;-78
2023/05/10 21:48:03;;;;;;;;;;;12.40;83.90;;;;;;5075843;28;19908;-81
2023/05/10 21:50:30;;;;;;;;;;;12.50;83.90;;;;;;5074245;28;20317;-79
2023/05/10 21:52:57;;;;;;;;;;;12.50;83.60;;;;;;5074223;28;20435;-79
2023/05/10 21:55:23;;;;;;;;;;;12.50;83.60;;;;;;5075114;28;19932;-79
2023/05/10 21:57:50;;;;;;;;;;;12.60;83.30;;;;;;5075080;28;19909;-79
2023/05/10 22:00:18;;;;;;;;;;;12.70;83.70;;;;;;5074119;28;19927;-79
2023/05/10 22:02:45;;;;;;;;;;;12.70;83.20;;;;;;5073763;28;20047;-79
2023/05/10 22:05:12;;;;;;;;;;;12.70;83.10;;;;;;5073726;28;20007;-79
2023/05/10 22:07:38;;;;;;;;;;;12.70;82.90;;;;;;5075152;28;19922;-79
2023/05/10 22:10:06;;;;;;;;;;;12.80;83.30;;;;;;5075120;28;19931;-78
2023/05/10 22:12:32;;;;;;;;;;;12.80;83.00;;;;;;5073707;28;19916;-79
2023/05/10 22:14:59;;;;;;;;;;;12.80;83.10;;;;;;5073062;28;19919;-78
2023/05/10 22:17:26;;;;;;;;;;;12.90;83.10;;;;;;5074647;28;19966;-79
2023/05/10 22:19:53;;;;;;;;;;;12.90;82.70;;;;;;5074619;28;19917;-79
2023/05/10 22:22:21;;;;;;;;;;;12.90;82.60;;;;;;5074628;28;19915;-79
2023/05/10 22:24:47;;;;;;;;;;;13.00;82.60;;;;;;5074465;28;20431;-79
2023/05/10 22:27:14;;;;;;;;;;;13.00;82.60;;;;;;5074393;28;19908;-79
2023/05/10 22:29:41;;;;;;;;;;;13.10;82.70;;;;;;5074574;28;20379;-78
2023/05/10 22:32:08;;;;;;;;;;;13.10;82.70;;;;;;5074836;28;19920;-79
2023/05/10 22:34:34;;;;;;;;;;;13.20;82.70;;;;;;5074447;28;19916;-79
2023/05/10 22:37:02;;;;;;;;;;;13.20;82.80;;;;;;5074455;28;19908;-79
2023/05/10 22:39:29;;;;;;;;;;;13.20;82.50;;;;;;5074109;28;20011;-78
2023/05/10 22:41:56;;;;;;;;;;;13.20;82.50;;;;;;5074275;28;20361;-79
2023/05/10 22:44:22;;;;;;;;;;;13.30;82.60;;;;;;5074069;28;19908;-79
2023/05/10 22:46:49;;;;;;;;;;;13.30;82.70;;;;;;5073711;28;19943;-79
2023/05/10 22:49:16;;;;;;;;;;;13.30;82.80;;;;;;5074037;28;19909;-78
2023/05/10 22:51:42;;;;;;;;;;;13.40;82.80;;;;;;5074107;28;19909;-79
2023/05/10 22:54:09;;;;;;;;;;;13.40;82.80;;;;;;5074136;28;20390;-79
2023/05/10 22:56:36;;;;;;;;;;;13.50;82.90;;;;;;5073795;28;19908;-79
2023/05/10 22:59:03;;;;;;;;;;;13.50;82.70;;;;;;5073776;28;20274;-79
2023/05/10 23:01:30;;;;;;;;;;;13.60;82.70;;;;;;5073970;28;19924;-79
2023/05/10 23:03:57;;;;;;;;;;;13.60;82.70;;;;;;5074043;28;20274;-79
2023/05/10 23:06:23;;;;;;;;;;;13.70;82.70;;;;;;5073743;28;19908;-79
2023/05/10 23:08:50;;;;;;;;;;;13.70;82.50;;;;;;5073663;28;19915;-79
2023/05/10 23:11:17;;;;;;;;;;;13.70;82.40;;;;;;5073652;28;19995;-79
2023/05/10 23:13:44;;;;;;;;;;;13.80;82.30;;;;;;5073849;28;19931;-79
2023/05/10 23:16:11;;;;;;;;;;;13.80;82.20;;;;;;5073640;28;19928;-79
2023/05/10 23:18:38;;;;;;;;;;;13.80;82.10;;;;;;5073521;28;19909;-79
2023/05/10 23:21:05;;;;;;;;;;;13.90;82.10;;;;;;5073439;28;19917;-79
2023/05/10 23:23:32;;;;;;;;;;;14.00;82.10;;;;;;5073407;28;19909;-79
2023/05/10 23:25:59;;;;;;;;;;;14.00;82.00;;;;;;5073363;28;19915;-79
2023/05/10 23:28:26;;;;;;;;;;;14.00;81.90;;;;;;5055433;28;19920;-79
2023/05/10 23:30:56;;;;;;;;;;;14.10;81.80;;;;;;5073414;28;19909;-79
2023/05/10 23:33:23;;;;;;;;;;;14.20;81.90;;;;;;5072829;28;19998;-79
2023/05/10 23:35:50;;;;;;;;;;;14.20;81.70;;;;;;5071819;28;19999;-79
2023/05/10 23:38:17;;;;;;;;;;;14.20;81.70;;;;;;5067535;28;20003;-79
2023/05/10 23:40:47;;;;;;;;;;;14.20;81.60;;;;;;5069824;28;20043;-77
2023/05/10 23:43:15;;;;;;;;;;;14.30;81.50;;;;;;5068493;28;20014;-77
2023/05/10 23:45:41;;;;;;;;;;;14.30;81.30;;;;;;5070367;28;20053;-75
2023/05/10 23:48:08;;;;;;;;;;;14.40;81.40;;;;;;5069944;28;19921;-80
2023/05/10 23:50:36;;;;;;;;;;;14.40;81.20;;;;;;5069494;28;20350;-75
2023/05/10 23:53:02;;;;;;;;;;;14.50;81.20;;;;;;5069521;28;19919;-78
2023/05/10 23:55:29;;;;;;;;;;;14.60;81.30;;;;;;5069786;28;20289;-79
2023/05/10 23:57:56;;;;;;;;;;;14.70;81.20;;;;;;5069513;28;19920;-73
